EVLA/LPX METAR and TAF weather

Enter ICAO airport designator
Station Type Date Time Source
EVLA METAR 2020/07/07 08:20 UTC NOAA

EVLA 070820Z AUTO 23014KT 9999 SCT018/// SCT021/// BKN030/// 16/12 Q1008


Station Type Date Time Source
EVLA Decoded METAR 2020/07/07 08:20 UTC NOAA

Liepaja International Airport, Latvia (EVLA) 56-31N 021-05E
Jul 07, 2020 - 04:20 AM EDT / 2020.07.07 0820 UTC
Wind: from the SW (230 degrees) at 16 MPH (14 KT):0
Visibility: greater than 7 mile(s):0
Sky conditions: mostly cloudy
Temperature: 60 F (16 C)
Dew Point: 53 F (12 C)
Relative Humidity: 77%
Pressure (altimeter): 29.77 in. Hg (1008 hPa)
ob: EVLA 070820Z AUTO 23014KT 9999 SCT018/// SCT021/// BKN030/// 16/12 Q1008
cycle: 8

Station Type Date Time Source
EVLA TAF 2020/07/07 09:06 UTC NOAA

TAF TAF EVLA 070803Z 0709/0809 23010KT 9999 BKN030
TEMPO 0709/0715 SCT020CB
TEMPO 0800/0806 3000 TSRA BKN015CB

Example: see airport list